Time;durP1;ratioP1;P1;durP2;ratioP2;P2;SDS_P1;SDS_P2;PMS_P1;PMS_P2;Temp;Humidity;BMP_temperature;BMP_pressure;BME280_temperature;BME280_humidity;BME280_pressure;Samples;Min_cycle;Max_cycle;Signal;HPM_P1;HPM_P2
2021/01/20 00:00:06;;;;;;;1.88;0.85;;;4.70;99.90;;;;;;5054000;28;20226;-74
2021/01/20 00:02:33;;;;;;;1.23;1.13;;;4.70;99.90;;;;;;5054381;28;20207;-74
2021/01/20 00:04:59;;;;;;;1.10;0.98;;;4.70;99.90;;;;;;5054391;28;20290;-74
2021/01/20 00:07:26;;;;;;;1.52;1.08;;;4.60;99.90;;;;;;5054238;28;20290;-75
2021/01/20 00:09:53;;;;;;;0.82;0.70;;;4.50;99.90;;;;;;5054227;28;20352;-74
2021/01/20 00:12:19;;;;;;;1.17;0.93;;;4.50;99.90;;;;;;5054003;28;20294;-75
2021/01/20 00:14:45;;;;;;;1.50;1.25;;;4.60;99.90;;;;;;5054132;28;20231;-75
2021/01/20 00:17:13;;;;;;;1.02;0.90;;;4.50;99.90;;;;;;5054133;28;20290;-74
2021/01/20 00:19:39;;;;;;;1.42;0.90;;;4.40;99.90;;;;;;5054313;28;20219;-75
2021/01/20 00:22:05;;;;;;;1.65;1.30;;;4.40;99.90;;;;;;5054019;28;20310;-75
2021/01/20 00:24:33;;;;;;;1.00;0.93;;;4.30;99.90;;;;;;5054284;28;20294;-75
2021/01/20 00:26:59;;;;;;;1.60;1.00;;;4.40;99.90;;;;;;5054373;28;20298;-74
2021/01/20 00:29:25;;;;;;;1.55;0.98;;;4.20;99.90;;;;;;5054389;28;20606;-74
2021/01/20 00:31:52;;;;;;;1.30;0.90;;;4.20;99.90;;;;;;5053849;28;20754;-74
2021/01/20 00:34:18;;;;;;;3.42;1.83;;;4.20;99.90;;;;;;5053943;28;20207;-75
2021/01/20 00:36:44;;;;;;;3.28;1.50;;;4.10;99.90;;;;;;5053528;28;20208;-74
2021/01/20 00:39:11;;;;;;;2.25;1.23;;;4.10;99.90;;;;;;5053521;28;20295;-75
2021/01/20 00:41:38;;;;;;;2.10;1.00;;;4.10;99.90;;;;;;5053309;28;20310;-74
2021/01/20 00:44:05;;;;;;;1.20;1.10;;;4.20;99.90;;;;;;5053452;28;20208;-74
2021/01/20 00:46:31;;;;;;;1.75;1.23;;;4.30;99.90;;;;;;5052833;28;20206;-75
2021/01/20 00:48:58;;;;;;;1.67;1.20;;;4.30;99.90;;;;;;5053279;28;20257;-75
2021/01/20 00:51:24;;;;;;;1.75;1.00;;;4.30;99.90;;;;;;5053074;28;20230;-73
2021/01/20 00:53:50;;;;;;;1.10;1.00;;;4.30;99.90;;;;;;5053324;28;20296;-73
2021/01/20 00:56:17;;;;;;;1.25;1.15;;;4.20;99.90;;;;;;5053007;28;20680;-73
2021/01/20 00:58:44;;;;;;;1.42;1.10;;;4.10;99.90;;;;;;5053092;28;20294;-74
2021/01/20 01:01:10;;;;;;;1.48;1.00;;;4.10;99.90;;;;;;5052504;28;20237;-73
2021/01/20 01:03:36;;;;;;;1.90;1.25;;;4.00;99.90;;;;;;5053090;28;20326;-73
2021/01/20 01:06:03;;;;;;;1.50;1.23;;;4.00;99.90;;;;;;5053000;28;20398;-72
2021/01/20 01:08:30;;;;;;;1.50;1.40;;;3.90;99.90;;;;;;5052980;28;20673;-74
2021/01/20 01:10:58;;;;;;;1.85;1.45;;;3.90;99.90;;;;;;5052439;28;20731;-77
2021/01/20 01:13:25;;;;;;;1.77;1.35;;;3.90;99.90;;;;;;5052381;28;20204;-76
2021/01/20 01:15:52;;;;;;;1.85;1.35;;;3.90;99.90;;;;;;5052406;28;20241;-75
2021/01/20 01:18:18;;;;;;;3.45;1.60;;;3.80;99.90;;;;;;5053158;28;20290;-75
2021/01/20 01:20:44;;;;;;;5.20;1.58;;;3.90;99.90;;;;;;5052126;28;20735;-76
2021/01/20 01:23:11;;;;;;;1.25;1.10;;;3.90;99.90;;;;;;5052282;28;20299;-74
2021/01/20 01:25:37;;;;;;;2.60;1.70;;;3.80;99.90;;;;;;5052083;28;20290;-75
2021/01/20 01:28:11;;;;;;;1.60;1.30;;;3.90;99.90;;;;;;5052668;28;20306;-75
2021/01/20 01:30:37;;;;;;;1.08;1.00;;;3.90;99.90;;;;;;5052072;28;20255;-75
2021/01/20 01:33:05;;;;;;;1.40;1.30;;;4.00;99.90;;;;;;5052327;28;20302;-73
2021/01/20 01:35:32;;;;;;;1.00;0.88;;;3.90;99.90;;;;;;5052056;28;20296;-72
2021/01/20 01:37:58;;;;;;;2.00;1.20;;;3.90;99.90;;;;;;5052669;28;20299;-72
2021/01/20 01:40:25;;;;;;;2.35;1.15;;;3.90;99.90;;;;;;5051915;28;20223;-73
2021/01/20 01:42:51;;;;;;;2.08;1.00;;;3.90;99.90;;;;;;5052026;28;20235;-74
2021/01/20 01:45:18;;;;;;;1.58;0.90;;;3.80;99.90;;;;;;5052214;28;20555;-73
2021/01/20 01:47:44;;;;;;;1.55;1.38;;;3.90;99.90;;;;;;5052435;28;20228;-73
2021/01/20 01:50:13;;;;;;;0.60;0.60;;;3.80;99.90;;;;;;5052068;28;20226;-73
2021/01/20 01:52:39;;;;;;;1.90;0.98;;;3.80;99.90;;;;;;5051907;28;20837;-72
2021/01/20 01:55:07;;;;;;;1.67;1.42;;;3.80;99.90;;;;;;5052152;28;20199;-72
2021/01/20 01:57:37;;;;;;;1.08;1.08;;;3.90;99.90;;;;;;5052138;28;20226;-76
2021/01/20 02:00:05;;;;;;;1.73;1.23;;;3.90;99.90;;;;;;5051975;28;20230;-76
2021/01/20 02:02:33;;;;;;;2.67;1.08;;;3.90;99.90;;;;;;5052032;28;20213;-77
2021/01/20 02:04:59;;;;;;;1.50;1.10;;;4.00;99.90;;;;;;5054447;28;20200;-75
2021/01/20 02:07:28;;;;;;;1.00;1.00;;;3.90;99.90;;;;;;5053047;28;20238;-76
2021/01/20 02:09:54;;;;;;;3.53;1.15;;;4.00;99.90;;;;;;5053426;28;20248;-75
2021/01/20 02:12:35;;;;;;;2.65;1.33;;;4.10;99.90;;;;;;5057132;28;20290;-75
2021/01/20 02:15:05;;;;;;;1.85;1.17;;;4.10;99.90;;;;;;5059211;28;20582;-76
2021/01/20 02:17:38;;;;;;;1.45;1.33;;;4.00;99.90;;;;;;5058074;28;20205;-76
2021/01/20 02:20:21;;;;;;;1.10;1.10;;;3.90;99.90;;;;;;5057361;28;20211;-75
2021/01/20 02:22:52;;;;;;;1.70;1.10;;;3.90;99.90;;;;;;5057484;28;20204;-75
2021/01/20 02:25:36;;;;;;;0.85;0.85;;;3.80;99.90;;;;;;5057908;28;20268;-75
2021/01/20 02:28:10;;;;;;;1.20;1.00;;;3.90;99.90;;;;;;5057568;28;20302;-77
2021/01/20 02:30:41;;;;;;;1.40;1.30;;;3.80;99.90;;;;;;5057811;28;20252;-76
2021/01/20 02:33:10;;;;;;;2.45;0.90;;;3.90;99.90;;;;;;5057452;28;20530;-75
2021/01/20 02:35:38;;;;;;;2.08;1.10;;;3.90;99.90;;;;;;5057472;28;20199;-75
2021/01/20 02:38:05;;;;;;;1.85;0.90;;;4.00;99.90;;;;;;5057768;28;20281;-75
2021/01/20 02:40:31;;;;;;;0.82;0.60;;;4.10;99.90;;;;;;5057633;28;20624;-75
2021/01/20 02:42:58;;;;;;;0.80;0.80;;;4.20;99.90;;;;;;5057225;28;20203;-75
2021/01/20 02:45:25;;;;;;;1.05;0.90;;;4.30;99.90;;;;;;5057360;28;20203;-75
2021/01/20 02:47:53;;;;;;;0.93;0.65;;;4.40;99.90;;;;;;5057062;28;20209;-75
2021/01/20 02:50:20;;;;;;;1.20;0.90;;;4.50;99.90;;;;;;5056714;28;20277;-75
2021/01/20 02:52:50;;;;;;;0.80;0.80;;;4.70;99.90;;;;;;5057420;28;20203;-75
2021/01/20 02:55:20;;;;;;;2.03;0.90;;;4.70;99.90;;;;;;5057184;28;20206;-76
2021/01/20 02:57:53;;;;;;;0.93;0.60;;;4.80;99.90;;;;;;5056814;28;20200;-76
2021/01/20 03:00:20;;;;;;;0.80;0.75;;;4.80;99.90;;;;;;5057112;28;20228;-75
2021/01/20 03:02:49;;;;;;;0.77;0.73;;;4.80;99.90;;;;;;5057283;28;20290;-75
2021/01/20 03:05:18;;;;;;;0.80;0.80;;;4.80;99.90;;;;;;5057977;28;20199;-75
2021/01/20 03:07:44;;;;;;;2.40;1.33;;;4.80;99.90;;;;;;5057282;28;20214;-75
2021/01/20 03:10:11;;;;;;;1.10;1.00;;;4.90;99.90;;;;;;5056951;28;20313;-75
2021/01/20 03:12:39;;;;;;;1.55;1.00;;;4.90;99.90;;;;;;5056759;28;20229;-76
2021/01/20 03:15:10;;;;;;;1.30;0.80;;;5.00;99.90;;;;;;5056671;28;20208;-76
2021/01/20 03:17:37;;;;;;;0.82;0.63;;;4.90;99.90;;;;;;5056749;28;20183;-75
2021/01/20 03:20:04;;;;;;;0.80;0.80;;;4.90;99.90;;;;;;5057012;28;20223;-76
2021/01/20 03:22:31;;;;;;;1.08;0.82;;;4.80;99.90;;;;;;5057232;28;20199;-75
2021/01/20 03:24:57;;;;;;;0.93;0.80;;;4.80;99.90;;;;;;5056229;28;20199;-76
2021/01/20 03:27:23;;;;;;;0.95;0.80;;;4.80;99.90;;;;;;5056782;28;20219;-75
2021/01/20 03:29:50;;;;;;;2.30;1.33;;;4.80;99.90;;;;;;5056589;28;20294;-76
2021/01/20 03:32:16;;;;;;;1.83;1.40;;;4.80;99.90;;;;;;5058098;28;20209;-76
2021/01/20 03:34:42;;;;;;;2.25;1.17;;;4.70;99.90;;;;;;5056779;28;20218;-76
2021/01/20 03:37:09;;;;;;;1.40;1.25;;;4.60;99.90;;;;;;5056872;28;20296;-76
2021/01/20 03:39:36;;;;;;;1.27;1.17;;;4.70;99.90;;;;;;5056566;28;20299;-76
2021/01/20 03:42:03;;;;;;;1.50;1.27;;;4.70;99.90;;;;;;5057072;28;20318;-76
2021/01/20 03:44:29;;;;;;;1.45;1.00;;;4.50;99.90;;;;;;5056655;28;20230;-75
2021/01/20 03:46:55;;;;;;;1.73;1.58;;;4.50;99.90;;;;;;5055913;28;20206;-76
2021/01/20 03:49:22;;;;;;;1.20;1.10;;;4.50;99.90;;;;;;5056350;28;20289;-75
2021/01/20 03:51:48;;;;;;;2.65;1.20;;;4.50;99.90;;;;;;5056124;28;20300;-76
2021/01/20 03:54:14;;;;;;;2.38;1.30;;;4.50;99.90;;;;;;5056448;28;20286;-75
2021/01/20 03:56:42;;;;;;;1.60;1.50;;;4.50;99.90;;;;;;5056349;28;20207;-75
2021/01/20 03:59:08;;;;;;;1.67;1.30;;;4.50;99.90;;;;;;5056206;28;20290;-75
2021/01/20 04:01:35;;;;;;;4.15;1.48;;;4.50;99.90;;;;;;5056203;28;20314;-75
2021/01/20 04:04:01;;;;;;;1.45;1.10;;;4.50;99.90;;;;;;5056956;28;20204;-76
2021/01/20 04:06:28;;;;;;;1.95;1.73;;;4.50;99.90;;;;;;5057336;28;20204;-75
2021/01/20 04:08:54;;;;;;;2.67;1.90;;;4.30;99.90;;;;;;5057247;28;20214;-76
2021/01/20 04:11:21;;;;;;;4.43;2.40;;;4.30;99.90;;;;;;5057827;28;20218;-76
2021/01/20 04:13:48;;;;;;;1.95;1.45;;;4.30;99.90;;;;;;5057212;28;20310;-76
2021/01/20 04:16:15;;;;;;;2.80;1.85;;;4.30;99.90;;;;;;5056053;28;20203;-76
2021/01/20 04:18:42;;;;;;;3.60;1.67;;;4.40;99.90;;;;;;5056973;28;20306;-76
2021/01/20 04:21:09;;;;;;;2.10;1.55;;;4.40;99.90;;;;;;5056006;28;20235;-76
2021/01/20 04:23:37;;;;;;;2.88;2.10;;;4.40;99.90;;;;;;5056414;28;20295;-76
2021/01/20 04:26:03;;;;;;;2.88;2.60;;;4.50;99.90;;;;;;5056295;28;20215;-76
2021/01/20 04:28:30;;;;;;;2.88;2.10;;;4.40;99.90;;;;;;5056446;28;20207;-76
2021/01/20 04:30:57;;;;;;;2.80;1.90;;;4.40;99.90;;;;;;5055877;28;20302;-76
2021/01/20 04:33:23;;;;;;;5.55;2.03;;;4.30;99.90;;;;;;5055238;28;20203;-75
2021/01/20 04:35:50;;;;;;;3.35;2.08;;;4.20;99.90;;;;;;5055011;28;20231;-75
2021/01/20 04:38:16;;;;;;;3.75;1.77;;;4.00;99.90;;;;;;5055538;28;20718;-76
2021/01/20 04:40:42;;;;;;;2.28;2.08;;;4.00;99.90;;;;;;5056097;28;20306;-75
2021/01/20 04:43:09;;;;;;;2.60;2.33;;;4.00;99.90;;;;;;5056064;28;20290;-75
2021/01/20 04:45:35;;;;;;;5.00;2.42;;;3.80;99.90;;;;;;5055611;28;20298;-76
2021/01/20 04:48:03;;;;;;;2.22;2.03;;;3.90;99.90;;;;;;5055238;28;20218;-76
2021/01/20 04:50:31;;;;;;;3.45;2.50;;;3.80;99.90;;;;;;5055038;28;20291;-75
2021/01/20 04:53:01;;;;;;;2.17;1.95;;;3.80;99.90;;;;;;5055176;28;20214;-75
2021/01/20 04:55:28;;;;;;;2.72;1.65;;;3.80;99.90;;;;;;5055230;28;20214;-77
2021/01/20 04:57:55;;;;;;;2.78;1.70;;;3.80;99.90;;;;;;5055445;28;20203;-75
2021/01/20 05:00:22;;;;;;;2.72;2.10;;;3.80;99.90;;;;;;5055703;28;20713;-76
2021/01/20 05:02:49;;;;;;;3.00;1.40;;;3.80;99.90;;;;;;5055157;28;20203;-75
2021/01/20 05:05:16;;;;;;;3.92;1.88;;;3.80;99.90;;;;;;5055947;28;20226;-75
2021/01/20 05:07:43;;;;;;;3.50;1.90;;;3.80;99.90;;;;;;5054883;28;20305;-76
2021/01/20 05:10:10;;;;;;;1.42;1.33;;;3.80;99.90;;;;;;5054977;28;20686;-75
2021/01/20 05:12:37;;;;;;;5.28;2.30;;;3.80;99.90;;;;;;5056281;28;20252;-75
2021/01/20 05:15:06;;;;;;;3.70;2.08;;;3.90;99.90;;;;;;5055412;28;20199;-75
2021/01/20 05:17:33;;;;;;;3.20;1.77;;;4.00;99.90;;;;;;5054698;28;20212;-75
2021/01/20 05:19:59;;;;;;;1.77;1.48;;;4.00;99.90;;;;;;5055605;28;20230;-75
2021/01/20 05:22:27;;;;;;;2.30;1.30;;;4.00;99.90;;;;;;5055487;28;20205;-75
2021/01/20 05:25:01;;;;;;;3.40;1.50;;;4.00;99.90;;;;;;5056514;28;20266;-75
2021/01/20 05:27:28;;;;;;;4.00;2.15;;;4.10;99.90;;;;;;5055685;28;20211;-75
2021/01/20 05:30:03;;;;;;;1.95;1.77;;;4.20;99.90;;;;;;5055881;28;20234;-75
2021/01/20 05:32:29;;;;;;;1.90;1.40;;;4.30;99.90;;;;;;5056119;28;20217;-75
2021/01/20 05:35:00;;;;;;;2.08;1.60;;;4.30;99.90;;;;;;5055997;28;20199;-75
2021/01/20 05:37:28;;;;;;;3.45;1.80;;;4.40;99.90;;;;;;5056165;28;20256;-75
2021/01/20 05:40:09;;;;;;;1.80;0.90;;;4.30;99.90;;;;;;5057086;28;20257;-76
2021/01/20 05:42:50;;;;;;;1.60;1.30;;;4.40;99.90;;;;;;5056235;28;20229;-75
2021/01/20 05:45:18;;;;;;;7.57;1.20;;;4.60;99.90;;;;;;5056278;28;20203;-75
2021/01/20 05:48:02;;;;;;;2.90;1.30;;;4.60;99.90;;;;;;5056583;28;20599;-76
2021/01/20 05:50:28;;;;;;;1.98;0.98;;;4.70;99.90;;;;;;5055566;28;20249;-75
2021/01/20 05:53:06;;;;;;;1.48;1.15;;;4.80;99.90;;;;;;5056207;28;20207;-75
2021/01/20 05:55:33;;;;;;;2.25;1.00;;;4.90;99.90;;;;;;5056923;28;20249;-76
2021/01/20 05:58:00;;;;;;;2.28;1.35;;;4.90;99.90;;;;;;5055689;28;20207;-76
2021/01/20 06:00:27;;;;;;;1.05;0.75;;;5.00;99.90;;;;;;5055807;28;20227;-76
2021/01/20 06:02:54;;;;;;;1.25;0.82;;;5.10;99.90;;;;;;5055549;28;20239;-75
2021/01/20 06:05:21;;;;;;;1.05;0.95;;;5.20;99.90;;;;;;5055464;28;20211;-76
2021/01/20 06:07:49;;;;;;;2.05;0.90;;;5.40;99.90;;;;;;5054388;28;20294;-75
2021/01/20 06:10:16;;;;;;;1.40;0.95;;;5.40;99.90;;;;;;5055442;28;20219;-75
2021/01/20 06:12:42;;;;;;;1.05;0.98;;;5.60;99.90;;;;;;5056542;28;20203;-75
2021/01/20 06:15:10;;;;;;;2.00;1.10;;;5.60;99.90;;;;;;5056933;28;20234;-75
2021/01/20 06:17:39;;;;;;;1.98;1.17;;;5.70;99.90;;;;;;5056286;28;20290;-76
2021/01/20 06:20:08;;;;;;;0.98;0.90;;;5.80;99.90;;;;;;5056414;28;20219;-76
2021/01/20 06:22:39;;;;;;;1.35;1.05;;;5.80;99.90;;;;;;5056127;28;20290;-75
2021/01/20 06:25:11;;;;;;;2.20;1.40;;;5.80;99.90;;;;;;5056581;28;20657;-75
2021/01/20 06:27:43;;;;;;;1.95;1.35;;;5.80;99.90;;;;;;5056024;28;20212;-77
2021/01/20 06:30:17;;;;;;;1.60;1.35;;;5.70;99.90;;;;;;5056289;28;20561;-76
2021/01/20 06:32:46;;;;;;;2.55;1.75;;;5.80;99.90;;;;;;5055904;28;20183;-76
2021/01/20 06:35:13;;;;;;;1.90;1.25;;;5.70;99.90;;;;;;5056623;28;20214;-76
2021/01/20 06:37:42;;;;;;;2.88;1.92;;;5.80;99.90;;;;;;5056304;28;20204;-76
2021/01/20 06:40:47;;;;;;;3.13;2.03;;;5.60;99.90;;;;;;5055971;28;20505;-76
2021/01/20 06:43:35;;;;;;;1.77;1.30;;;5.50;99.90;;;;;;5055973;28;20434;-76
2021/01/20 06:46:13;;;;;;;1.45;1.30;;;5.30;99.90;;;;;;5055901;28;20222;-77
2021/01/20 06:49:13;;;;;;;1.80;1.70;;;5.30;99.90;;;;;;5056899;28;20199;-76
2021/01/20 06:51:42;;;;;;;2.70;1.70;;;5.30;99.90;;;;;;5055738;28;20218;-76
2021/01/20 06:54:16;;;;;;;2.78;1.65;;;5.30;99.90;;;;;;5054664;28;20295;-76
2021/01/20 06:56:44;;;;;;;1.40;1.30;;;5.30;99.90;;;;;;5055054;28;20211;-76
2021/01/20 06:59:28;;;;;;;4.15;1.40;;;5.40;99.90;;;;;;5058715;28;20653;-76
2021/01/20 07:02:14;;;;;;;2.67;1.60;;;5.50;99.90;;;;;;5060225;28;20314;-76
2021/01/20 07:05:05;;;;;;;3.15;1.45;;;5.40;99.90;;;;;;5060315;28;20234;-76
2021/01/20 07:08:02;;;;;;;2.30;1.42;;;5.30;99.90;;;;;;5059661;28;20619;-75
2021/01/20 07:11:03;;;;;;;1.50;1.20;;;5.20;99.90;;;;;;5059028;28;20241;-75
2021/01/20 07:13:34;;;;;;;1.25;1.20;;;5.20;99.90;;;;;;5060457;28;20214;-77
2021/01/20 07:16:01;;;;;;;1.52;1.40;;;5.10;99.90;;;;;;5059441;28;20204;-76
2021/01/20 07:18:27;;;;;;;2.17;1.33;;;5.10;99.90;;;;;;5058950;28;20288;-76
2021/01/20 07:20:54;;;;;;;2.47;1.95;;;5.20;99.90;;;;;;5058292;28;20588;-76
2021/01/20 07:23:21;;;;;;;2.65;1.60;;;5.20;99.90;;;;;;5058578;28;20286;-76
2021/01/20 07:25:50;;;;;;;2.65;1.42;;;5.20;99.90;;;;;;5058708;28;20630;-75
2021/01/20 07:28:18;;;;;;;3.30;1.80;;;5.20;99.90;;;;;;5060608;28;20207;-76
2021/01/20 07:30:44;;;;;;;1.40;1.23;;;5.10;99.90;;;;;;5059625;28;20216;-76
2021/01/20 07:33:21;;;;;;;1.80;1.25;;;5.20;99.90;;;;;;5059604;28;20294;-76
2021/01/20 07:35:47;;;;;;;2.00;1.30;;;5.30;99.90;;;;;;5058980;28;20717;-76
2021/01/20 07:38:14;;;;;;;2.05;1.67;;;5.30;99.90;;;;;;5059125;28;20294;-76
2021/01/20 07:40:42;;;;;;;3.10;2.00;;;5.30;99.90;;;;;;5058283;28;20223;-76
2021/01/20 07:43:21;;;;;;;3.75;2.40;;;5.20;99.90;;;;;;5058188;28;20273;-76
2021/01/20 07:45:47;;;;;;;2.67;1.80;;;5.20;99.90;;;;;;5058055;28;20215;-76
2021/01/20 07:48:14;;;;;;;3.10;1.35;;;5.20;99.90;;;;;;5059286;28;20245;-76
2021/01/20 07:50:48;;;;;;;2.50;1.92;;;5.20;99.90;;;;;;5059609;28;20220;-76
2021/01/20 07:53:16;;;;;;;4.05;1.85;;;5.20;99.90;;;;;;5060889;28;20694;-76
2021/01/20 07:55:44;;;;;;;3.97;1.80;;;5.20;99.90;;;;;;5059760;28;20310;-76
2021/01/20 07:58:10;;;;;;;3.75;2.33;;;5.30;99.90;;;;;;5059299;28;20199;-76
2021/01/20 08:00:47;;;;;;;3.88;1.90;;;5.30;99.90;;;;;;5058326;28;20587;-76
2021/01/20 08:03:14;;;;;;;9.30;2.85;;;5.20;99.90;;;;;;5059483;28;20187;-77
2021/01/20 08:05:45;;;;;;;3.28;2.13;;;5.20;99.90;;;;;;5060479;28;20604;-77
2021/01/20 08:08:13;;;;;;;3.85;2.35;;;5.30;99.90;;;;;;5061335;28;20208;-76
2021/01/20 08:10:41;;;;;;;3.60;1.98;;;5.30;99.90;;;;;;5059429;28;20219;-76
2021/01/20 08:13:09;;;;;;;2.70;2.00;;;5.30;99.90;;;;;;5059558;28;20718;-76
2021/01/20 08:15:39;;;;;;;3.88;2.20;;;5.40;99.90;;;;;;5060352;28;20289;-76
2021/01/20 08:18:08;;;;;;;10.85;3.22;;;5.30;99.90;;;;;;5060303;28;20208;-79
2021/01/20 08:20:35;;;;;;;5.80;2.95;;;5.40;99.90;;;;;;5064687;28;20269;-80
2021/01/20 08:23:05;;;;;;;4.53;3.05;;;5.40;99.90;;;;;;5066298;28;20202;-79
2021/01/20 08:25:32;;;;;;;5.28;2.80;;;5.50;99.90;;;;;;5066054;28;20202;-77
2021/01/20 08:28:14;;;;;;;5.60;3.00;;;5.50;99.90;;;;;;5063331;28;20207;-79
2021/01/20 08:30:41;;;;;;;4.60;3.47;;;5.50;99.90;;;;;;5062500;28;20214;-79
2021/01/20 08:33:09;;;;;;;6.65;3.80;;;5.60;99.90;;;;;;5065517;28;20629;-79
2021/01/20 08:35:36;;;;;;;5.00;3.17;;;5.60;99.90;;;;;;5063766;28;20197;-79
2021/01/20 08:38:03;;;;;;;4.80;3.70;;;5.70;99.90;;;;;;5064594;28;20252;-80
2021/01/20 08:40:30;;;;;;;6.43;3.30;;;5.80;99.90;;;;;;5065190;28;20222;-79
2021/01/20 08:42:57;;;;;;;4.72;2.92;;;5.80;99.90;;;;;;5070132;28;20198;-76
2021/01/20 08:45:34;;;;;;;5.32;3.20;;;6.00;99.90;;;;;;5079335;28;20560;-76
2021/01/20 08:48:04;;;;;;;4.53;3.35;;;6.00;99.90;;;;;;5079030;28;20289;-77
2021/01/20 08:50:38;;;;;;;5.28;2.90;;;6.00;99.90;;;;;;5079997;28;20286;-76
2021/01/20 08:53:05;;;;;;;3.90;2.60;;;6.10;99.90;;;;;;5079580;28;20194;-76
2021/01/20 08:55:33;;;;;;;5.00;3.08;;;6.20;99.90;;;;;;5075134;28;20222;-77
2021/01/20 08:58:19;;;;;;;4.35;2.70;;;6.40;99.90;;;;;;5074576;28;20206;-76
2021/01/20 09:00:47;;;;;;;4.10;2.83;;;6.50;99.90;;;;;;5074723;28;20233;-76
2021/01/20 09:03:14;;;;;;;4.43;2.65;;;6.60;99.90;;;;;;5075429;28;20652;-76
2021/01/20 09:05:42;;;;;;;4.03;2.90;;;6.60;99.90;;;;;;5075776;28;20206;-76
2021/01/20 09:08:08;;;;;;;3.35;2.92;;;6.60;99.90;;;;;;5076195;28;20199;-76
2021/01/20 09:10:35;;;;;;;4.78;3.10;;;6.60;99.90;;;;;;5074637;28;20219;-75
2021/01/20 09:13:01;;;;;;;3.58;2.70;;;6.50;99.90;;;;;;5075182;28;20207;-76
2021/01/20 09:15:28;;;;;;;4.05;2.80;;;6.60;99.90;;;;;;5075154;28;20198;-80
2021/01/20 09:17:54;;;;;;;3.63;2.95;;;6.60;99.90;;;;;;5075776;28;20252;-76
2021/01/20 09:20:21;;;;;;;4.45;2.70;;;6.40;99.90;;;;;;5075582;28;20570;-76
2021/01/20 09:22:48;;;;;;;3.65;2.42;;;6.30;99.90;;;;;;5074809;28;20668;-76
2021/01/20 09:25:15;;;;;;;2.63;2.38;;;6.30;99.90;;;;;;5075687;28;20203;-76
2021/01/20 09:27:41;;;;;;;2.55;2.28;;;6.40;99.90;;;;;;5074791;28;20250;-76
2021/01/20 09:30:09;;;;;;;3.60;2.83;;;6.50;99.90;;;;;;5075324;28;20294;-76
2021/01/20 09:32:36;;;;;;;4.00;2.63;;;6.50;99.90;;;;;;5076100;28;20203;-76
2021/01/20 09:35:06;;;;;;;4.35;2.40;;;6.50;99.90;;;;;;5075347;28;20202;-76
2021/01/20 09:37:32;;;;;;;3.53;2.75;;;6.60;99.90;;;;;;5075188;28;20302;-76
2021/01/20 09:39:59;;;;;;;3.10;2.80;;;6.80;99.90;;;;;;5075208;28;20228;-76
2021/01/20 09:42:26;;;;;;;2.92;2.17;;;6.80;99.90;;;;;;5075542;28;20206;-76
2021/01/20 09:44:52;;;;;;;4.63;3.00;;;6.90;99.90;;;;;;5075514;28;20207;-76
2021/01/20 09:47:18;;;;;;;7.50;2.88;;;7.00;99.90;;;;;;5075260;28;20209;-76
2021/01/20 09:49:45;;;;;;;3.90;2.75;;;7.10;99.90;;;;;;5075747;28;20209;-76
2021/01/20 09:52:15;;;;;;;5.68;2.75;;;7.10;99.90;;;;;;5074374;28;20219;-76
2021/01/20 09:54:42;;;;;;;4.80;3.30;;;7.20;99.90;;;;;;5074660;28;20199;-76
2021/01/20 09:57:10;;;;;;;4.72;2.50;;;7.20;99.90;;;;;;5074502;28;20236;-76
2021/01/20 09:59:36;;;;;;;4.43;2.63;;;7.20;99.90;;;;;;5074588;28;20542;-76
2021/01/20 10:02:03;;;;;;;5.90;3.50;;;7.30;99.90;;;;;;5074517;28;20227;-76
2021/01/20 10:04:29;;;;;;;3.30;2.95;;;7.40;99.80;;;;;;5074701;28;20203;-76
2021/01/20 10:06:56;;;;;;;5.50;4.03;;;7.40;99.90;;;;;;5074632;28;20232;-76
2021/01/20 10:09:22;;;;;;;5.35;3.13;;;7.50;99.90;;;;;;5074499;28;20621;-76
2021/01/20 10:11:49;;;;;;;5.80;4.03;;;7.60;99.50;;;;;;5074901;28;20311;-76
2021/01/20 10:14:17;;;;;;;5.03;3.53;;;7.50;99.30;;;;;;5074894;28;20209;-76
2021/01/20 10:16:46;;;;;;;4.55;3.35;;;7.60;99.90;;;;;;5073953;28;20317;-76
2021/01/20 10:19:16;;;;;;;5.40;3.25;;;7.70;99.90;;;;;;5074521;28;20320;-77
2021/01/20 10:21:43;;;;;;;4.78;3.05;;;7.80;99.90;;;;;;5074346;28;20313;-76
2021/01/20 10:24:10;;;;;;;4.05;3.35;;;7.90;99.80;;;;;;5074543;28;20649;-76
2021/01/20 10:26:37;;;;;;;6.13;3.40;;;8.00;99.20;;;;;;5074249;28;20218;-77
2021/01/20 10:29:04;;;;;;;5.85;3.70;;;8.10;98.80;;;;;;5075046;28;20209;-76
2021/01/20 10:31:32;;;;;;;6.13;4.22;;;8.20;99.30;;;;;;5074554;28;20219;-76
2021/01/20 10:33:59;;;;;;;8.98;4.93;;;8.30;99.00;;;;;;5076089;28;20288;-76
2021/01/20 10:36:25;;;;;;;5.90;3.85;;;8.30;97.90;;;;;;5078195;28;20205;-76
2021/01/20 10:38:52;;;;;;;12.05;4.47;;;8.30;98.00;;;;;;5077889;28;20203;-76
2021/01/20 10:41:19;;;;;;;7.50;4.15;;;8.40;98.10;;;;;;5078129;28;20313;-76
2021/01/20 10:43:46;;;;;;;6.22;3.95;;;8.40;97.80;;;;;;5077661;28;20207;-76
2021/01/20 10:46:13;;;;;;;6.57;4.00;;;8.40;97.80;;;;;;5077659;28;20203;-76
2021/01/20 10:48:41;;;;;;;5.60;4.65;;;8.50;97.60;;;;;;5078158;28;20226;-76
2021/01/20 10:51:07;;;;;;;6.15;4.03;;;8.40;97.00;;;;;;5078276;28;20219;-76
2021/01/20 10:53:34;;;;;;;10.48;4.57;;;8.50;97.40;;;;;;5077922;28;20319;-76
2021/01/20 10:56:00;;;;;;;6.65;3.38;;;8.40;97.30;;;;;;5077801;28;20279;-76
2021/01/20 10:58:26;;;;;;;8.50;4.05;;;8.40;97.80;;;;;;5078271;28;20290;-76
2021/01/20 11:00:53;;;;;;;10.80;4.15;;;8.50;97.90;;;;;;5077878;28;20237;-76
2021/01/20 11:03:19;;;;;;;9.23;4.15;;;8.60;97.90;;;;;;5078096;28;20297;-76
2021/01/20 11:05:47;;;;;;;5.95;3.70;;;8.60;97.50;;;;;;5077017;28;20206;-76
2021/01/20 11:08:13;;;;;;;6.82;3.70;;;8.70;97.40;;;;;;5077184;28;20264;-76
2021/01/20 11:10:40;;;;;;;5.60;3.90;;;8.60;96.60;;;;;;5076992;28;20263;-76
2021/01/20 11:13:09;;;;;;;5.70;3.90;;;8.40;96.20;;;;;;5077509;28;20199;-76
2021/01/20 11:15:36;;;;;;;6.18;4.05;;;8.20;96.80;;;;;;5076665;28;20683;-76
2021/01/20 11:18:04;;;;;;;3.90;3.30;;;8.10;97.00;;;;;;5076653;28;20207;-76
2021/01/20 11:20:30;;;;;;;3.95;3.10;;;8.10;96.00;;;;;;5076460;28;20227;-76
2021/01/20 11:22:58;;;;;;;4.40;3.50;;;8.20;96.40;;;;;;5076954;28;20294;-77
2021/01/20 11:25:24;;;;;;;5.07;3.45;;;8.30;96.90;;;;;;5076881;28;20206;-77
2021/01/20 11:27:51;;;;;;;5.70;3.45;;;8.30;97.90;;;;;;5075935;28;20255;-77
2021/01/20 11:30:18;;;;;;;3.42;3.00;;;8.50;98.40;;;;;;5075908;28;20309;-76
2021/01/20 11:32:45;;;;;;;5.50;3.00;;;8.60;97.90;;;;;;5076699;28;20209;-76
2021/01/20 11:35:12;;;;;;;5.82;3.58;;;8.60;96.80;;;;;;5076496;28;20293;-76
2021/01/20 11:37:38;;;;;;;4.40;3.00;;;8.70;96.40;;;;;;5076514;28;20256;-76
2021/01/20 11:40:10;;;;;;;5.13;3.10;;;8.60;94.60;;;;;;5076272;28;20198;-76
2021/01/20 11:42:36;;;;;;;5.13;3.45;;;8.60;94.70;;;;;;5076527;28;20198;-76
2021/01/20 11:45:04;;;;;;;4.53;3.20;;;8.60;95.00;;;;;;5075855;28;20298;-76
2021/01/20 11:47:30;;;;;;;4.18;3.30;;;8.60;95.50;;;;;;5076215;28;20199;-76
2021/01/20 11:49:56;;;;;;;5.72;3.42;;;8.60;95.50;;;;;;5076468;28;20244;-76
2021/01/20 11:52:23;;;;;;;7.50;3.20;;;8.60;95.30;;;;;;5076764;28;20286;-76
2021/01/20 11:54:49;;;;;;;4.13;2.80;;;8.60;96.80;;;;;;5076348;28;20622;-76
2021/01/20 11:57:16;;;;;;;3.22;2.80;;;8.70;96.60;;;;;;5075857;28;20298;-76
2021/01/20 11:59:42;;;;;;;4.40;2.95;;;8.80;95.70;;;;;;5075843;28;20199;-76
2021/01/20 12:02:10;;;;;;;6.15;2.75;;;8.80;95.60;;;;;;5075610;28;20317;-76
2021/01/20 12:04:36;;;;;;;3.35;2.65;;;8.70;95.40;;;;;;5075750;28;20203;-76
2021/01/20 12:07:03;;;;;;;6.57;3.20;;;8.80;96.70;;;;;;5075123;28;20302;-76
2021/01/20 12:09:29;;;;;;;3.47;2.50;;;8.80;96.90;;;;;;5075291;28;20657;-76
2021/01/20 12:11:56;;;;;;;3.45;2.53;;;8.80;95.50;;;;;;5075183;28;20254;-76
2021/01/20 12:14:23;;;;;;;4.22;2.60;;;8.80;94.60;;;;;;5075702;28;20209;-76
2021/01/20 12:16:49;;;;;;;3.95;2.40;;;8.90;95.60;;;;;;5074988;28;20202;-76
2021/01/20 12:19:15;;;;;;;10.68;4.60;;;8.90;95.70;;;;;;5075094;28;20289;-77
2021/01/20 12:21:42;;;;;;;8.20;4.97;;;8.90;95.10;;;;;;5075331;28;20326;-76
2021/01/20 12:24:09;;;;;;;7.10;3.75;;;8.80;95.70;;;;;;5074821;28;20295;-76
2021/01/20 12:26:35;;;;;;;8.35;4.13;;;8.80;95.20;;;;;;5074915;28;20217;-76
2021/01/20 12:29:01;;;;;;;6.60;3.70;;;8.80;95.10;;;;;;5075440;28;20210;-76
2021/01/20 12:31:28;;;;;;;7.15;4.22;;;8.70;95.40;;;;;;5074986;28;20787;-76
2021/01/20 12:33:55;;;;;;;9.82;5.40;;;8.80;95.50;;;;;;5075719;28;20607;-77
2021/01/20 12:36:22;;;;;;;6.53;4.68;;;8.90;95.40;;;;;;5075077;28;20289;-76
2021/01/20 12:38:48;;;;;;;6.25;4.90;;;9.00;95.70;;;;;;5074866;28;20541;-76
2021/01/20 12:41:16;;;;;;;8.65;5.47;;;9.00;95.30;;;;;;5075123;28;20230;-76
2021/01/20 12:43:42;;;;;;;9.73;5.78;;;9.00;95.30;;;;;;5074995;28;20657;-76
2021/01/20 12:46:09;;;;;;;6.55;4.97;;;9.00;95.60;;;;;;5075116;28;20209;-76
2021/01/20 12:48:36;;;;;;;8.38;5.72;;;9.10;95.20;;;;;;5074699;28;20202;-76
2021/01/20 12:51:02;;;;;;;9.90;6.25;;;9.00;95.40;;;;;;5075268;28;20306;-76
2021/01/20 12:53:28;;;;;;;8.55;6.38;;;9.10;95.20;;;;;;5074446;28;20673;-76
2021/01/20 12:55:55;;;;;;;9.73;6.40;;;9.10;95.60;;;;;;5073774;28;20210;-76
2021/01/20 12:58:21;;;;;;;7.75;6.30;;;9.10;95.80;;;;;;5075315;28;20300;-76
2021/01/20 13:00:48;;;;;;;11.38;7.05;;;9.20;96.00;;;;;;5074714;28;20307;-77
2021/01/20 13:03:14;;;;;;;10.18;5.95;;;9.30;95.70;;;;;;5075445;28;20204;-76